createdAt,value
2022-08-01T00:00:56.471Z,1009.78
2022-08-01T00:01:56.733Z,1009.80
2022-08-01T00:02:56.713Z,1009.77
2022-08-01T00:03:56.614Z,1009.75
2022-08-01T00:04:56.483Z,1009.77
2022-08-01T00:05:56.704Z,1009.76
2022-08-01T00:06:56.490Z,1009.82
2022-08-01T00:07:56.559Z,1009.82
2022-08-01T00:08:56.497Z,1009.85
2022-08-01T00:09:57.146Z,1009.82
2022-08-01T00:10:57.771Z,1009.83
2022-08-01T00:11:59.786Z,1009.86
2022-08-01T00:12:56.429Z,1009.87
2022-08-01T00:13:56.413Z,1009.87
2022-08-01T00:14:56.340Z,1009.84
2022-08-01T00:15:56.264Z,1009.80
2022-08-01T00:16:56.397Z,1009.82
2022-08-01T00:17:56.227Z,1009.81
2022-08-01T00:18:56.215Z,1009.80
2022-08-01T00:19:56.238Z,1009.83
2022-08-01T00:20:56.201Z,1009.80
2022-08-01T00:21:56.315Z,1009.81
2022-08-01T00:22:56.020Z,1009.79
2022-08-01T00:23:56.110Z,1009.78
2022-08-01T00:24:56.079Z,1009.77
2022-08-01T00:25:55.988Z,1009.77
2022-08-01T00:26:56.227Z,1009.78
2022-08-01T00:27:55.914Z,1009.74
2022-08-01T00:28:55.952Z,1009.76
2022-08-01T00:30:11.074Z,1009.73
2022-08-01T00:30:55.875Z,1009.76
2022-08-01T00:31:56.268Z,1009.75
2022-08-01T00:32:55.841Z,1009.73
2022-08-01T00:33:55.880Z,1009.69
2022-08-01T00:34:55.845Z,1009.70
2022-08-01T00:35:55.750Z,1009.70
2022-08-01T00:36:55.794Z,1009.71
2022-08-01T00:37:55.920Z,1009.67
2022-08-01T00:38:55.746Z,1009.71
2022-08-01T00:39:55.748Z,1009.72
2022-08-01T00:40:55.682Z,1009.77
2022-08-01T00:41:59.392Z,1009.72
2022-08-01T00:42:55.813Z,1009.75
2022-08-01T00:43:55.582Z,1009.73
2022-08-01T00:44:55.586Z,1009.76
2022-08-01T00:45:55.563Z,1009.75
2022-08-01T00:46:55.505Z,1009.78
2022-08-01T00:47:55.589Z,1009.77
2022-08-01T00:48:55.672Z,1009.75
2022-08-01T00:49:55.465Z,1009.81
2022-08-01T00:50:55.412Z,1009.85
2022-08-01T00:51:55.356Z,1009.87
2022-08-01T00:52:55.329Z,1009.89
2022-08-01T00:53:55.498Z,1009.89
2022-08-01T00:54:55.516Z,1009.85
2022-08-01T00:55:55.190Z,1009.83
2022-08-01T00:56:55.235Z,1009.88
2022-08-01T00:58:04.599Z,1009.81
2022-08-01T00:58:55.204Z,1009.81
2022-08-01T00:59:54.945Z,1009.80
2022-08-01T01:00:55.159Z,1009.80
2022-08-01T01:01:55.152Z,1009.72
2022-08-01T01:02:55.092Z,1009.75
2022-08-01T01:03:59.680Z,1009.73
2022-08-01T01:04:55.112Z,1009.77
2022-08-01T01:05:54.990Z,1009.77
2022-08-01T01:06:54.880Z,1009.76
2022-08-01T01:07:54.945Z,1009.74
2022-08-01T01:08:55.107Z,1009.69
2022-08-01T01:09:55.088Z,1009.72
2022-08-01T01:10:54.852Z,1009.72
2022-08-01T01:11:54.865Z,1009.70
2022-08-01T01:12:54.806Z,1009.72
2022-08-01T01:13:54.808Z,1009.74
2022-08-01T01:14:55.034Z,1009.74
2022-08-01T01:15:54.715Z,1009.71
2022-08-01T01:16:54.673Z,1009.69
2022-08-01T01:17:54.662Z,1009.67
2022-08-01T01:18:54.669Z,1009.63
2022-08-01T01:19:54.773Z,1009.62
2022-08-01T01:20:54.602Z,1009.62
2022-08-01T01:21:54.593Z,1009.59
2022-08-01T01:22:54.490Z,1009.57
2022-08-01T01:23:54.501Z,1009.55
2022-08-01T01:24:54.505Z,1009.56
2022-08-01T01:25:54.634Z,1009.58
2022-08-01T01:26:54.448Z,1009.59
2022-08-01T01:27:54.413Z,1009.58
2022-08-01T01:28:54.239Z,1009.55
2022-08-01T01:30:00.085Z,1009.56
2022-08-01T01:30:54.522Z,1009.56
2022-08-01T01:31:54.327Z,1009.60
2022-08-01T01:32:54.203Z,1009.58
2022-08-01T01:33:54.279Z,1009.55
2022-08-01T01:34:54.932Z,1009.54
2022-08-01T01:35:54.200Z,1009.58
2022-08-01T01:36:54.366Z,1009.58
2022-08-01T01:37:54.128Z,1009.57
2022-08-01T01:38:54.137Z,1009.54
2022-08-01T01:39:54.528Z,1009.55
2022-08-01T01:40:54.078Z,1009.57
2022-08-01T01:41:54.141Z,1009.55
2022-08-01T01:42:53.994Z,1009.56
2022-08-01T01:43:53.948Z,1009.57
2022-08-01T01:44:53.781Z,1009.53
2022-08-01T01:45:53.862Z,1009.51
2022-08-01T01:46:54.135Z,1009.51
2022-08-01T01:47:53.789Z,1009.48
2022-08-01T01:48:53.793Z,1009.48
2022-08-01T01:49:53.790Z,1009.47
2022-08-01T01:50:53.787Z,1009.52
2022-08-01T01:52:02.827Z,1009.52
2022-08-01T01:52:53.714Z,1009.50
2022-08-01T01:53:53.699Z,1009.47
2022-08-01T01:54:53.691Z,1009.49
2022-08-01T01:55:53.626Z,1009.48
2022-08-01T01:56:53.682Z,1009.46
2022-08-01T01:57:53.742Z,1009.47
2022-08-01T01:58:53.582Z,1009.47
2022-08-01T01:59:54.336Z,1009.44
2022-08-01T02:00:53.481Z,1009.45
2022-08-01T02:02:05.147Z,1009.41
2022-08-01T02:02:53.648Z,1009.42
2022-08-01T02:03:53.645Z,1009.41
2022-08-01T02:04:53.406Z,1009.41
2022-08-01T02:05:54.264Z,1009.41
2022-08-01T02:06:53.310Z,1009.38
2022-08-01T02:07:53.337Z,1009.42
2022-08-01T02:08:53.440Z,1009.48
2022-08-01T02:09:53.282Z,1009.46
2022-08-01T02:10:53.238Z,1009.45
2022-08-01T02:12:09.331Z,1009.44
2022-08-01T02:12:53.219Z,1009.43
2022-08-01T02:13:53.193Z,1009.45
2022-08-01T02:14:53.107Z,1009.45
2022-08-01T02:16:00.264Z,1009.46
2022-08-01T02:16:53.124Z,1009.43
2022-08-01T02:17:53.026Z,1009.45
2022-08-01T02:18:53.002Z,1009.38
2022-08-01T02:19:52.901Z,1009.41
2022-08-01T02:20:53.114Z,1009.40
2022-08-01T02:21:52.925Z,1009.39
2022-08-01T02:22:52.930Z,1009.36
2022-08-01T02:23:52.677Z,1009.40
2022-08-01T02:24:53.017Z,1009.38
2022-08-01T02:26:09.880Z,1009.34
2022-08-01T02:26:52.779Z,1009.34
2022-08-01T02:27:52.758Z,1009.36
2022-08-01T02:28:52.729Z,1009.44
2022-08-01T02:29:52.699Z,1009.41
2022-08-01T02:30:52.828Z,1009.40
2022-08-01T02:31:52.652Z,1009.39
2022-08-01T02:32:52.610Z,1009.39
2022-08-01T02:33:52.610Z,1009.34
2022-08-01T02:34:52.773Z,1009.36
2022-08-01T02:36:30.521Z,1009.36
2022-08-01T02:36:52.675Z,1009.37
2022-08-01T02:37:52.478Z,1009.36
2022-08-01T02:38:52.438Z,1009.34
2022-08-01T02:39:52.442Z,1009.36
2022-08-01T02:40:52.572Z,1009.36
2022-08-01T02:41:52.392Z,1009.39
2022-08-01T02:42:52.299Z,1009.41
2022-08-01T02:43:53.383Z,1009.37
2022-08-01T02:44:52.244Z,1009.37
2022-08-01T02:45:52.531Z,1009.40
2022-08-01T02:46:52.196Z,1009.38
2022-08-01T02:47:52.164Z,1009.35
2022-08-01T02:48:52.149Z,1009.32
2022-08-01T02:49:53.271Z,1009.31
2022-08-01T02:50:52.132Z,1009.35
2022-08-01T02:51:52.315Z,1009.34
2022-08-01T02:52:52.027Z,1009.37
2022-08-01T02:53:51.967Z,1009.38
2022-08-01T02:54:52.854Z,1009.39
2022-08-01T02:55:52.002Z,1009.38
2022-08-01T02:56:52.156Z,1009.36
2022-08-01T02:57:59.308Z,1009.38
2022-08-01T02:58:51.942Z,1009.41
2022-08-01T02:59:51.858Z,1009.39
2022-08-01T03:00:51.816Z,1009.39
2022-08-01T03:01:52.038Z,1009.37
2022-08-01T03:02:51.799Z,1009.36
2022-08-01T03:03:51.683Z,1009.33
2022-08-01T03:04:55.214Z,1009.32
2022-08-01T03:05:51.714Z,1009.33
2022-08-01T03:06:51.668Z,1009.34
2022-08-01T03:07:52.031Z,1009.38
2022-08-01T03:08:51.626Z,1009.43
2022-08-01T03:09:51.602Z,1009.36
2022-08-01T03:10:51.697Z,1009.36
2022-08-01T03:11:51.487Z,1009.37
2022-08-01T03:12:51.558Z,1009.40
2022-08-01T03:13:51.659Z,1009.42
2022-08-01T03:14:51.512Z,1009.40
2022-08-01T03:15:51.485Z,1009.43
2022-08-01T03:16:51.361Z,1009.42
2022-08-01T03:17:51.405Z,1009.45
2022-08-01T03:18:51.381Z,1009.45
2022-08-01T03:19:51.758Z,1009.46
2022-08-01T03:20:51.291Z,1009.49
2022-08-01T03:21:51.303Z,1009.46
2022-08-01T03:22:51.248Z,1009.50
2022-08-01T03:23:54.937Z,1009.48
2022-08-01T03:24:51.212Z,1009.48
2022-08-01T03:25:51.322Z,1009.47
2022-08-01T03:26:51.066Z,1009.50
2022-08-01T03:27:51.298Z,1009.49
2022-08-01T03:28:51.120Z,1009.48
2022-08-01T03:29:51.829Z,1009.53
2022-08-01T03:30:51.027Z,1009.51
2022-08-01T03:31:51.850Z,1009.54
2022-08-01T03:32:50.956Z,1009.50
2022-08-01T03:33:51.102Z,1009.51
2022-08-01T03:34:50.907Z,1009.54
2022-08-01T03:35:50.924Z,1009.51
2022-08-01T03:36:51.040Z,1009.53
2022-08-01T03:38:14.665Z,1009.55
2022-08-01T03:38:50.833Z,1009.56
2022-08-01T03:39:50.756Z,1009.54
2022-08-01T03:40:50.792Z,1009.55
2022-08-01T03:41:54.861Z,1009.55
2022-08-01T03:42:50.884Z,1009.51
2022-08-01T03:43:50.843Z,1009.55
2022-08-01T03:44:50.618Z,1009.56
2022-08-01T03:45:50.634Z,1009.56
2022-08-01T03:46:50.566Z,1009.59
2022-08-01T03:47:50.548Z,1009.62
2022-08-01T03:48:50.768Z,1009.61
2022-08-01T03:49:50.528Z,1009.62
2022-08-01T03:50:50.481Z,1009.66
2022-08-01T03:51:50.502Z,1009.61
2022-08-01T03:52:50.386Z,1009.62
2022-08-01T03:53:50.612Z,1009.60
2022-08-01T03:54:50.353Z,1009.65
2022-08-01T03:55:50.367Z,1009.62
2022-08-01T03:56:50.231Z,1009.68
2022-08-01T03:57:50.299Z,1009.59
2022-08-01T03:58:50.488Z,1009.63
2022-08-01T03:59:50.397Z,1009.68
2022-08-01T04:00:50.190Z,1009.67
2022-08-01T04:01:50.289Z,1009.66
2022-08-01T04:02:50.203Z,1009.61
2022-08-01T04:03:49.880Z,1009.65
2022-08-01T04:04:49.920Z,1009.62
2022-08-01T04:05:49.896Z,1009.63
2022-08-01T04:06:50.001Z,1009.67
2022-08-01T04:07:49.840Z,1009.66
2022-08-01T04:08:49.867Z,1009.67
2022-08-01T04:09:49.881Z,1009.68
2022-08-01T04:10:50.218Z,1009.67
2022-08-01T04:11:49.871Z,1009.64
2022-08-01T04:12:49.762Z,1009.65
2022-08-01T04:13:49.691Z,1009.67
2022-08-01T04:14:49.679Z,1009.65
2022-08-01T04:15:49.665Z,1009.64
2022-08-01T04:16:49.772Z,1009.68
2022-08-01T04:17:49.614Z,1009.71
2022-08-01T04:18:49.598Z,1009.73
2022-08-01T04:19:49.569Z,1009.71
2022-08-01T04:20:49.550Z,1009.71
2022-08-01T04:21:49.622Z,1009.72
2022-08-01T04:22:49.514Z,1009.73
2022-08-01T04:23:50.869Z,1009.75
2022-08-01T04:24:53.342Z,1009.76
2022-08-01T04:25:49.397Z,1009.75
2022-08-01T04:26:49.402Z,1009.76
2022-08-01T04:27:51.385Z,1009.78
2022-08-01T04:28:49.323Z,1009.79
2022-08-01T04:29:49.347Z,1009.77
2022-08-01T04:30:49.253Z,1009.80
2022-08-01T04:31:49.240Z,1009.80
2022-08-01T04:32:49.208Z,1009.78
2022-08-01T04:33:49.410Z,1009.83
2022-08-01T04:34:49.123Z,1009.83
2022-08-01T04:36:02.524Z,1009.80
2022-08-01T04:36:49.109Z,1009.84
2022-08-01T04:37:48.956Z,1009.82
2022-08-01T04:38:49.168Z,1009.85
2022-08-01T04:39:50.183Z,1009.84
2022-08-01T04:40:49.028Z,1009.85
2022-08-01T04:41:48.954Z,1009.83
2022-08-01T04:42:48.970Z,1009.85
2022-08-01T04:43:49.028Z,1009.83
2022-08-01T04:44:48.849Z,1009.84
2022-08-01T04:45:48.875Z,1009.81
2022-08-01T04:46:48.826Z,1009.91
2022-08-01T04:47:48.813Z,1009.90
2022-08-01T04:48:48.973Z,1009.91
2022-08-01T04:49:49.436Z,1009.90
2022-08-01T04:50:48.675Z,1009.92
2022-08-01T04:51:48.810Z,1009.86
2022-08-01T04:52:48.718Z,1009.90
2022-08-01T04:53:48.590Z,1009.90
2022-08-01T04:54:48.777Z,1009.89
2022-08-01T04:55:48.702Z,1009.86
2022-08-01T04:56:48.623Z,1009.89
2022-08-01T04:57:48.584Z,1009.87
2022-08-01T04:58:48.574Z,1009.92
2022-08-01T04:59:48.611Z,1009.92
2022-08-01T05:00:48.549Z,1009.94
2022-08-01T05:01:48.499Z,1009.91
2022-08-01T05:02:48.436Z,1009.88
2022-08-01T05:03:48.448Z,1009.90
2022-08-01T05:04:48.969Z,1009.86
2022-08-01T05:05:48.377Z,1009.86
2022-08-01T05:06:48.614Z,1009.89
2022-08-01T05:07:48.318Z,1009.90
2022-08-01T05:08:48.262Z,1009.87
2022-08-01T05:09:48.285Z,1009.91
2022-08-01T05:10:48.344Z,1009.91
2022-08-01T05:11:48.332Z,1009.90
2022-08-01T05:12:48.210Z,1009.89
2022-08-01T05:13:48.127Z,1009.93
2022-08-01T05:14:48.088Z,1009.89
2022-08-01T05:15:48.312Z,1009.93
2022-08-01T05:16:47.931Z,1009.88
2022-08-01T05:17:48.000Z,1009.93
2022-08-01T05:18:47.970Z,1009.94
2022-08-01T05:19:47.931Z,1010.01
2022-08-01T05:20:47.833Z,1009.98
2022-08-01T05:21:48.050Z,1009.98
2022-08-01T05:22:47.877Z,1010.00
2022-08-01T05:23:47.731Z,1010.03
2022-08-01T05:24:47.709Z,1009.97
2022-08-01T05:25:57.076Z,1009.98
2022-08-01T05:26:47.658Z,1009.96
2022-08-01T05:27:49.077Z,1010.00
2022-08-01T05:28:47.602Z,1009.99
2022-08-01T05:29:47.617Z,1010.02
2022-08-01T05:30:47.583Z,1010.02
2022-08-01T05:31:47.525Z,1010.03
2022-08-01T05:32:47.497Z,1010.03
2022-08-01T05:33:47.542Z,1010.04
2022-08-01T05:34:47.448Z,1010.05
2022-08-01T05:35:48.720Z,1010.03
2022-08-01T05:36:47.409Z,1010.02
2022-08-01T05:37:47.369Z,1010.05
2022-08-01T05:38:47.342Z,1010.04
2022-08-01T05:39:47.507Z,1010.05
2022-08-01T05:40:47.323Z,1010.06
2022-08-01T05:41:47.266Z,1010.05
2022-08-01T05:42:47.242Z,1010.09
2022-08-01T05:43:47.224Z,1010.09
2022-08-01T05:44:47.187Z,1010.10
2022-08-01T05:45:47.312Z,1010.12
2022-08-01T05:46:47.138Z,1010.16
2022-08-01T05:47:47.115Z,1010.16
2022-08-01T05:48:47.153Z,1010.15
2022-08-01T05:49:47.061Z,1010.15
2022-08-01T05:50:47.517Z,1010.12
2022-08-01T05:51:47.048Z,1010.16
2022-08-01T05:52:46.983Z,1010.13
2022-08-01T05:53:46.954Z,1010.09
2022-08-01T05:54:46.937Z,1010.09
2022-08-01T05:55:46.901Z,1010.10
2022-08-01T05:56:46.937Z,1010.10
2022-08-01T05:57:46.858Z,1010.13
2022-08-01T05:58:46.833Z,1010.09
2022-08-01T05:59:47.187Z,1010.14
2022-08-01T06:00:46.770Z,1010.13
2022-08-01T06:01:46.924Z,1010.13
2022-08-01T06:02:46.778Z,1010.13
2022-08-01T06:03:46.695Z,1010.15
2022-08-01T06:04:46.674Z,1010.12
2022-08-01T06:05:46.646Z,1010.13
2022-08-01T06:06:46.626Z,1010.17
2022-08-01T06:07:46.723Z,1010.16
2022-08-01T06:08:46.576Z,1010.13
2022-08-01T06:09:46.662Z,1010.18
2022-08-01T06:10:46.567Z,1010.18
2022-08-01T06:11:46.492Z,1010.19
2022-08-01T06:12:46.466Z,1010.21
2022-08-01T06:13:48.895Z,1010.21
2022-08-01T06:14:46.452Z,1010.24
2022-08-01T06:15:46.412Z,1010.18
2022-08-01T06:16:46.362Z,1010.20
2022-08-01T06:17:46.336Z,1010.21
2022-08-01T06:18:46.311Z,1010.22
2022-08-01T06:19:46.339Z,1010.21
2022-08-01T06:20:46.269Z,1010.24
2022-08-01T06:21:46.233Z,1010.21
2022-08-01T06:22:46.206Z,1010.25
2022-08-01T06:23:46.180Z,1010.27
2022-08-01T06:24:46.239Z,1010.28
2022-08-01T06:25:46.125Z,1010.27
2022-08-01T06:26:46.107Z,1010.27
2022-08-01T06:27:46.082Z,1010.29
2022-08-01T06:28:46.051Z,1010.24
2022-08-01T06:29:53.576Z,1010.26
2022-08-01T06:30:46.053Z,1010.23
2022-08-01T06:31:45.990Z,1010.23
2022-08-01T06:32:45.944Z,1010.28
2022-08-01T06:33:45.921Z,1010.27
2022-08-01T06:34:45.891Z,1010.28
2022-08-01T06:35:46.147Z,1010.30
2022-08-01T06:36:45.840Z,1010.32
2022-08-01T06:37:45.847Z,1010.32
2022-08-01T06:38:45.787Z,1010.35
2022-08-01T06:39:45.776Z,1010.36
2022-08-01T06:40:45.773Z,1010.36
2022-08-01T06:41:45.760Z,1010.40
2022-08-01T06:42:45.686Z,1010.38
2022-08-01T06:43:45.657Z,1010.40
2022-08-01T06:44:45.632Z,1010.39
2022-08-01T06:45:45.613Z,1010.42
2022-08-01T06:46:45.626Z,1010.45
2022-08-01T06:47:45.585Z,1010.44
2022-08-01T06:48:45.537Z,1010.47
2022-08-01T06:49:45.503Z,1010.45
2022-08-01T06:50:45.511Z,1010.40
2022-08-01T06:51:45.504Z,1010.42
2022-08-01T06:52:45.483Z,1010.44
2022-08-01T06:53:45.411Z,1010.42
2022-08-01T06:54:45.526Z,1010.41
2022-08-01T06:55:45.353Z,1010.41
2022-08-01T06:56:45.406Z,1010.44
2022-08-01T06:57:45.315Z,1010.44
2022-08-01T06:58:45.300Z,1010.47
2022-08-01T06:59:54.251Z,1010.42
2022-08-01T07:00:45.312Z,1010.44
2022-08-01T07:01:45.265Z,1010.41
2022-08-01T07:02:45.184Z,1010.47
2022-08-01T07:03:52.988Z,1010.52
2022-08-01T07:04:45.125Z,1010.47
2022-08-01T07:05:45.103Z,1010.46
2022-08-01T07:06:45.079Z,1010.48
2022-08-01T07:07:45.261Z,1010.48
2022-08-01T07:08:45.026Z,1010.46
2022-08-01T07:09:45.003Z,1010.45
2022-08-01T07:10:44.977Z,1010.46
2022-08-01T07:11:44.948Z,1010.47
2022-08-01T07:12:44.929Z,1010.46
2022-08-01T07:13:45.824Z,1010.50
2022-08-01T07:14:44.880Z,1010.46
2022-08-01T07:15:44.852Z,1010.46
2022-08-01T07:16:44.824Z,1010.42
2022-08-01T07:17:44.816Z,1010.41
2022-08-01T07:18:44.791Z,1010.46
2022-08-01T07:19:44.802Z,1010.44
2022-08-01T07:20:52.958Z,1010.44
2022-08-01T07:21:45.274Z,1010.47
2022-08-01T07:22:47.385Z,1010.45
2022-08-01T07:23:45.944Z,1010.50
2022-08-01T07:24:46.010Z,1010.52
2022-08-01T07:25:50.528Z,1010.56
2022-08-01T07:26:52.703Z,1010.54
2022-08-01T07:27:44.634Z,1010.51
2022-08-01T07:28:44.541Z,1010.55
2022-08-01T07:29:44.505Z,1010.52
2022-08-01T07:30:44.560Z,1010.52
2022-08-01T07:31:44.462Z,1010.53
2022-08-01T07:32:44.430Z,1010.52
2022-08-01T07:33:48.024Z,1010.55
2022-08-01T07:34:44.387Z,1010.58
2022-08-01T07:35:44.371Z,1010.58
2022-08-01T07:36:44.390Z,1010.58
2022-08-01T07:37:48.669Z,1010.60
2022-08-01T07:38:44.285Z,1010.59
2022-08-01T07:39:44.252Z,1010.64
2022-08-01T07:40:45.163Z,1010.65
2022-08-01T07:42:02.476Z,1010.64
2022-08-01T07:42:44.242Z,1010.66
2022-08-01T07:43:50.668Z,1010.66
2022-08-01T07:44:44.183Z,1010.67
2022-08-01T07:45:46.583Z,1010.67
2022-08-01T07:46:44.077Z,1010.75
2022-08-01T07:47:44.095Z,1010.71
2022-08-01T07:48:44.093Z,1010.77
2022-08-01T07:49:44.061Z,1010.76
2022-08-01T07:50:43.975Z,1010.77
2022-08-01T07:52:02.714Z,1010.75
2022-08-01T07:52:43.921Z,1010.77
2022-08-01T07:53:43.899Z,1010.78
2022-08-01T07:54:45.458Z,1010.77
2022-08-01T07:55:43.846Z,1010.75
2022-08-01T07:56:43.821Z,1010.77
2022-08-01T07:57:43.827Z,1010.80
2022-08-01T07:58:43.786Z,1010.78
2022-08-01T07:59:43.743Z,1010.80
2022-08-01T08:00:43.957Z,1010.81
2022-08-01T08:01:43.807Z,1010.81
2022-08-01T08:02:43.681Z,1010.82
2022-08-01T08:03:43.660Z,1010.82
2022-08-01T08:04:47.079Z,1010.81
2022-08-01T08:05:57.639Z,1010.78
2022-08-01T08:06:43.653Z,1010.74
2022-08-01T08:07:43.555Z,1010.74
2022-08-01T08:08:43.535Z,1010.73
2022-08-01T08:09:43.511Z,1010.75
2022-08-01T08:10:43.480Z,1010.75
2022-08-01T08:11:47.348Z,1010.75
2022-08-01T08:12:43.735Z,1010.78
2022-08-01T08:13:43.404Z,1010.76
2022-08-01T08:14:43.384Z,1010.79
2022-08-01T08:15:43.371Z,1010.79
2022-08-01T08:16:43.341Z,1010.81
2022-08-01T08:17:43.312Z,1010.78
2022-08-01T08:18:43.353Z,1010.77
2022-08-01T08:19:43.441Z,1010.82
2022-08-01T08:20:43.240Z,1010.81
2022-08-01T08:21:43.222Z,1010.81
2022-08-01T08:22:43.188Z,1010.79
2022-08-01T08:23:44.140Z,1010.85
2022-08-01T08:24:46.606Z,1010.83
2022-08-01T08:25:43.184Z,1010.82
2022-08-01T08:26:43.091Z,1010.82
2022-08-01T08:27:43.078Z,1010.84
2022-08-01T08:28:43.041Z,1010.84
2022-08-01T08:29:43.014Z,1010.80
2022-08-01T08:30:43.045Z,1010.81
2022-08-01T08:31:52.141Z,1010.85
2022-08-01T08:32:42.949Z,1010.89
2022-08-01T08:33:42.919Z,1010.90
2022-08-01T08:34:49.572Z,1010.79
2022-08-01T08:35:53.344Z,1010.84
2022-08-01T08:36:47.703Z,1010.86
2022-08-01T08:37:47.526Z,1010.85
2022-08-01T08:38:42.790Z,1010.86
2022-08-01T08:39:42.796Z,1010.84
2022-08-01T08:40:42.749Z,1010.89
2022-08-01T08:41:42.715Z,1010.86
2022-08-01T08:42:42.694Z,1010.86
2022-08-01T08:43:42.737Z,1010.94
2022-08-01T08:44:43.685Z,1010.86
2022-08-01T08:45:58.187Z,1010.89
2022-08-01T08:46:42.591Z,1010.87
2022-08-01T08:47:42.612Z,1010.89
2022-08-01T08:48:42.544Z,1010.88
2022-08-01T08:49:43.535Z,1010.93
2022-08-01T08:50:42.493Z,1010.94
2022-08-01T08:51:42.465Z,1010.93
2022-08-01T08:52:42.445Z,1010.91
2022-08-01T08:53:42.416Z,1010.95
2022-08-01T08:54:42.392Z,1010.93
2022-08-01T08:55:55.867Z,1011.00
2022-08-01T08:56:42.341Z,1010.97
2022-08-01T08:57:42.344Z,1011.02
2022-08-01T08:58:42.297Z,1011.01
2022-08-01T08:59:42.273Z,1011.04
2022-08-01T09:00:42.254Z,1011.04
2022-08-01T09:01:42.339Z,1011.05
2022-08-01T09:02:42.242Z,1011.10
2022-08-01T09:03:42.255Z,1011.13
2022-08-01T09:04:42.155Z,1011.14
2022-08-01T09:05:42.137Z,1011.18
2022-08-01T09:06:42.115Z,1011.14
2022-08-01T09:07:42.186Z,1011.15
2022-08-01T09:08:42.056Z,1011.12
2022-08-01T09:09:42.099Z,1011.13
2022-08-01T09:10:42.019Z,1011.17
2022-08-01T09:11:41.988Z,1011.22
2022-08-01T09:12:41.967Z,1011.16
2022-08-01T09:13:45.213Z,1011.15
2022-08-01T09:14:41.919Z,1011.20
2022-08-01T09:15:41.896Z,1011.23
2022-08-01T09:16:47.970Z,1011.24
2022-08-01T09:17:41.898Z,1011.21
2022-08-01T09:18:41.824Z,1011.22
2022-08-01T09:19:42.150Z,1011.26
2022-08-01T09:20:41.774Z,1011.25
2022-08-01T09:21:41.753Z,1011.30
2022-08-01T09:22:45.073Z,1011.29
2022-08-01T09:23:53.983Z,1011.30
2022-08-01T09:24:41.707Z,1011.30
2022-08-01T09:25:47.885Z,1011.28
2022-08-01T09:26:41.634Z,1011.33
2022-08-01T09:27:44.243Z,1011.31
2022-08-01T09:28:44.969Z,1011.30
2022-08-01T09:29:41.564Z,1011.35
2022-08-01T09:30:41.536Z,1011.28
2022-08-01T09:31:41.698Z,1011.27
2022-08-01T09:32:41.487Z,1011.37
2022-08-01T09:33:41.471Z,1011.28
2022-08-01T09:34:41.442Z,1011.28
2022-08-01T09:35:43.924Z,1011.38
2022-08-01T09:36:41.396Z,1011.37
2022-08-01T09:37:41.463Z,1011.40
2022-08-01T09:38:44.948Z,1011.41
2022-08-01T09:39:41.338Z,1011.37
2022-08-01T09:40:41.306Z,1011.36
2022-08-01T09:41:41.279Z,1011.42
2022-08-01T09:42:41.262Z,1011.43
2022-08-01T09:43:41.319Z,1011.45
2022-08-01T09:44:42.460Z,1011.42
2022-08-01T09:45:43.786Z,1011.53
2022-08-01T09:46:41.171Z,1011.47
2022-08-01T09:47:41.141Z,1011.50
2022-08-01T09:48:41.120Z,1011.53
2022-08-01T09:49:50.678Z,1011.52
2022-08-01T09:50:41.080Z,1011.51
2022-08-01T09:52:00.035Z,1011.52
2022-08-01T09:52:41.458Z,1011.61
2022-08-01T09:53:41.018Z,1011.56
2022-08-01T09:54:41.044Z,1011.58
2022-08-01T09:55:41.033Z,1011.58
2022-08-01T09:56:40.945Z,1011.60
2022-08-01T09:57:40.916Z,1011.55
2022-08-01T09:58:40.893Z,1011.64
2022-08-01T09:59:57.371Z,1011.66
2022-08-01T10:00:45.514Z,1011.61
2022-08-01T10:01:40.921Z,1011.66
2022-08-01T10:02:40.811Z,1011.63
2022-08-01T10:03:40.823Z,1011.64
2022-08-01T10:04:41.608Z,1011.65
2022-08-01T10:05:40.761Z,1011.72
2022-08-01T10:06:41.543Z,1011.76
2022-08-01T10:07:43.608Z,1011.74
2022-08-01T10:08:40.685Z,1011.73
2022-08-01T10:09:41.242Z,1011.77
2022-08-01T10:10:40.625Z,1011.74
2022-08-01T10:11:40.599Z,1011.78
2022-08-01T10:12:45.562Z,1011.72
2022-08-01T10:13:40.626Z,1011.72
2022-08-01T10:14:41.005Z,1011.73
2022-08-01T10:15:40.509Z,1011.77
2022-08-01T10:16:40.484Z,1011.79
2022-08-01T10:17:51.334Z,1011.79
2022-08-01T10:18:40.445Z,1011.77
2022-08-01T10:19:40.510Z,1011.78
2022-08-01T10:20:40.399Z,1011.82
2022-08-01T10:21:57.229Z,1011.76
2022-08-01T10:22:40.342Z,1011.78
2022-08-01T10:23:41.294Z,1011.73
2022-08-01T10:24:40.317Z,1011.72
2022-08-01T10:25:42.417Z,1011.77
2022-08-01T10:26:40.256Z,1011.82
2022-08-01T10:27:40.249Z,1011.83
2022-08-01T10:28:40.209Z,1011.92
2022-08-01T10:29:46.124Z,1011.85
2022-08-01T10:30:40.166Z,1011.87
2022-08-01T10:31:40.379Z,1011.82
2022-08-01T10:32:40.144Z,1011.84
2022-08-01T10:33:50.690Z,1011.85
2022-08-01T10:34:44.780Z,1011.90
2022-08-01T10:35:46.947Z,1011.89
2022-08-01T10:36:40.814Z,1011.89
2022-08-01T10:37:51.900Z,1011.86
2022-08-01T10:38:39.983Z,1011.86
2022-08-01T10:39:39.963Z,1011.86
2022-08-01T10:40:39.939Z,1011.90
2022-08-01T10:41:41.466Z,1011.85
2022-08-01T10:42:39.889Z,1011.89
2022-08-01T10:43:39.945Z,1011.84
2022-08-01T10:44:39.849Z,1011.84
2022-08-01T10:45:39.812Z,1011.89
2022-08-01T10:46:39.791Z,1011.90
2022-08-01T10:47:50.163Z,1011.87
2022-08-01T10:48:39.747Z,1011.86
2022-08-01T10:49:39.817Z,1011.91
2022-08-01T10:50:39.700Z,1011.89
2022-08-01T10:51:52.108Z,1011.94
2022-08-01T10:52:39.875Z,1011.87
2022-08-01T10:53:43.105Z,1011.88
2022-08-01T10:54:39.611Z,1011.88
2022-08-01T10:55:39.636Z,1011.93
2022-08-01T10:56:39.556Z,1011.91
2022-08-01T10:57:39.533Z,1011.89
2022-08-01T10:58:42.492Z,1011.95
2022-08-01T10:59:50.677Z,1012.02
2022-08-01T11:00:39.455Z,1012.02
2022-08-01T11:01:45.058Z,1012.00
2022-08-01T11:02:39.411Z,1012.02
2022-08-01T11:03:56.848Z,1012.00
2022-08-01T11:04:39.360Z,1012.01
2022-08-01T11:05:39.340Z,1012.03
2022-08-01T11:06:39.312Z,1012.01
2022-08-01T11:07:39.487Z,1012.05
2022-08-01T11:08:39.270Z,1012.01
2022-08-01T11:09:39.288Z,1012.03
2022-08-01T11:10:39.795Z,1011.95
2022-08-01T11:11:39.186Z,1011.98
2022-08-01T11:12:39.162Z,1012.02
2022-08-01T11:13:39.323Z,1012.02
2022-08-01T11:14:55.191Z,1012.03
2022-08-01T11:15:49.894Z,1012.02
2022-08-01T11:16:39.320Z,1012.01
2022-08-01T11:17:42.066Z,1012.01
2022-08-01T11:18:39.021Z,1011.99
2022-08-01T11:19:39.225Z,1012.02
2022-08-01T11:20:42.410Z,1012.08
2022-08-01T11:21:57.045Z,1012.02
2022-08-01T11:22:38.921Z,1012.07
2022-08-01T11:23:38.900Z,1012.08
2022-08-01T11:24:38.867Z,1012.05
2022-08-01T11:26:03.140Z,1012.09
2022-08-01T11:26:38.817Z,1012.10
2022-08-01T11:27:38.795Z,1012.11
2022-08-01T11:28:41.230Z,1012.11
2022-08-01T11:29:38.756Z,1012.08
2022-08-01T11:30:38.740Z,1012.04
2022-08-01T11:31:38.900Z,1012.07
2022-08-01T11:33:05.578Z,1012.04
2022-08-01T11:33:38.669Z,1012.07
2022-08-01T11:34:38.651Z,1012.06
2022-08-01T11:35:38.614Z,1012.05
2022-08-01T11:37:04.093Z,1012.08
2022-08-01T11:37:38.954Z,1012.11
2022-08-01T11:38:38.552Z,1012.14
2022-08-01T11:39:39.036Z,1012.08
2022-08-01T11:40:38.502Z,1012.05
2022-08-01T11:41:39.512Z,1012.10
2022-08-01T11:42:38.457Z,1012.06
2022-08-01T11:43:38.495Z,1012.08
2022-08-01T11:44:38.413Z,1012.04
2022-08-01T11:45:38.395Z,1012.07
2022-08-01T11:46:38.455Z,1012.17
2022-08-01T11:47:38.350Z,1012.08
2022-08-01T11:48:38.342Z,1012.09
2022-08-01T11:49:38.685Z,1012.07
2022-08-01T11:50:39.093Z,1012.07
2022-08-01T11:51:38.266Z,1012.08
2022-08-01T11:52:38.242Z,1012.09
2022-08-01T11:53:38.229Z,1012.14
2022-08-01T11:54:38.197Z,1012.11
2022-08-01T11:55:38.296Z,1012.08
2022-08-01T11:56:42.895Z,1012.08
2022-08-01T11:57:38.161Z,1012.04
2022-08-01T11:58:38.123Z,1012.10
2022-08-01T11:59:41.198Z,1012.17
2022-08-01T12:00:38.067Z,1012.28
2022-08-01T12:01:38.348Z,1012.05
2022-08-01T12:02:38.087Z,1012.09
2022-08-01T12:03:38.001Z,1012.08
2022-08-01T12:04:37.980Z,1012.02
2022-08-01T12:05:43.014Z,1012.06